Airport View

Enter AWOS ICAO identifier for current METAR.

ex. KFNL

KTSP 170930Z AUTO 12007KT 10SM CLR 05/M05 A3021 RMK AO2

17 Nov 2019 09:36

Frequency: 120.025

Phone: 661-823-0473

Other Area AWOS: KMHV - KWJF - KSDB - KEDW

TAF KWJF 170537Z 1706/1806 VRB03KT P6SM SKC FM171900 07006KT P6SM SKC FM180000 31006KT P6SM SKC FM180400 VRB03KT P6SM SKC